Time;durP1;ratioP1;P1;durP2;ratioP2;P2;SDS_P1;SDS_P2;PMS_P1;PMS_P2;Temp;Humidity;BMP_temperature;BMP_pressure;BME280_temperature;BME280_humidity;BME280_pressure;Samples;Min_cycle;Max_cycle;Signal;HPM_P1;HPM_P2
2022/11/17 00:00:36;;;;;;;0.97;0.80;;;;;;;11.44;100.00;98275.09;5010767;28;20453;-59
2022/11/17 00:03:02;;;;;;;2.80;0.90;;;;;;;11.45;100.00;98274.13;5020009;28;20488;-59
2022/11/17 00:05:29;;;;;;;1.33;0.60;;;;;;;11.51;100.00;98278.19;5010808;28;20464;-59
2022/11/17 00:07:55;;;;;;;11.60;1.63;;;;;;;11.43;100.00;98272.53;5019368;28;21082;-59
2022/11/17 00:10:21;;;;;;;1.70;0.83;;;;;;;11.45;100.00;98265.31;5011455;28;20456;-59
2022/11/17 00:15:33;;;;;;;1.00;1.00;;;;;;;11.30;100.00;98259.16;5013732;28;20595;-59
2022/11/17 00:23:48;;;;;;;0.47;0.40;;;;;;;11.16;100.00;98228.13;5018756;28;20492;-59
2022/11/17 00:26:18;;;;;;;0.87;0.87;;;;;;;11.20;100.00;98226.13;5021642;28;20498;-59
2022/11/17 00:28:44;;;;;;;2.87;0.83;;;;;;;11.21;100.00;98219.84;5015546;28;20476;-60
2022/11/17 00:34:05;;;;;;;0.60;0.53;;;;;;;11.18;100.00;98210.28;5020847;28;20505;-59
2022/11/17 00:36:37;;;;;;;1.17;1.17;;;;;;;11.16;100.00;98204.22;5013551;28;20535;-59
2022/11/17 00:39:05;;;;;;;4.00;1.37;;;;;;;11.24;100.00;98195.75;5006271;28;20471;-58
2022/11/17 00:41:32;;;;;;;0.73;0.73;;;;;;;11.15;100.00;98193.66;5022542;28;20443;-60
2022/11/17 00:43:58;;;;;;;1.10;1.00;;;;;;;11.11;100.00;98194.84;5028143;28;20496;-59
2022/11/17 00:46:25;;;;;;;1.73;1.63;;;;;;;11.12;100.00;98188.56;5024970;28;20995;-59
2022/11/17 00:48:52;;;;;;;0.80;0.63;;;;;;;11.00;100.00;98184.03;5018962;28;20555;-59
2022/11/17 00:51:19;;;;;;;0.80;0.80;;;;;;;11.03;100.00;98179.34;5024747;28;20452;-59
2022/11/17 00:53:45;;;;;;;1.13;1.13;;;;;;;10.93;100.00;98173.78;5015157;28;20514;-59
2022/11/17 00:56:12;;;;;;;1.33;1.23;;;;;;;10.92;100.00;98165.91;5017117;28;20463;-59
2022/11/17 00:58:38;;;;;;;1.13;1.10;;;;;;;10.88;100.00;98165.25;5019082;28;20997;-59
2022/11/17 01:01:05;;;;;;;8.63;1.30;;;;;;;10.92;100.00;98163.25;5017004;28;20459;-60
2022/11/17 01:03:33;;;;;;;1.40;0.80;;;;;;;10.96;100.00;98160.31;5019117;28;20562;-60
2022/11/17 01:06:10;;;;;;;1.53;1.33;;;;;;;10.73;100.00;98149.44;5017162;28;20459;-59
2022/11/17 01:08:36;;;;;;;1.10;1.00;;;;;;;10.68;100.00;98149.72;5017496;28;20552;-59
2022/11/17 01:11:21;;;;;;;1.30;1.20;;;;;;;10.62;100.00;98139.47;5018575;28;20455;-59
2022/11/17 01:13:47;;;;;;;4.10;1.40;;;;;;;10.75;100.00;98129.78;4997039;28;20449;-59
2022/11/17 01:16:16;;;;;;;1.00;0.67;;;;;;;10.68;100.00;98123.13;5020913;28;20553;-59
2022/11/17 01:18:44;;;;;;;0.40;0.30;;;;;;;10.73;100.00;98134.34;5014269;28;20477;-59
2022/11/17 01:21:14;;;;;;;1.20;1.10;;;;;;;10.81;100.00;98128.53;5021532;28;20513;-60
2022/11/17 01:23:42;;;;;;;2.27;1.30;;;;;;;10.81;100.00;98124.06;5024579;28;20850;-59
2022/11/17 01:26:14;;;;;;;0.67;0.40;;;;;;;10.78;100.00;98118.09;5011286;28;20809;-59
2022/11/17 01:28:41;;;;;;;0.73;0.73;;;;;;;10.95;100.00;98121.34;5023881;28;20481;-60
2022/11/17 01:31:14;;;;;;;0.70;0.70;;;;;;;11.13;100.00;98118.47;5010872;28;20503;-60
2022/11/17 01:33:41;;;;;;;0.57;0.57;;;;;;;11.17;100.00;98115.50;5024346;28;20448;-59
2022/11/17 01:37:17;;;;;;;1.17;0.90;;;;;;;11.34;100.00;98122.34;5010985;28;20456;-59
2022/11/17 01:39:17;;;;;;;1.23;1.13;;;;;;;11.32;100.00;98126.94;5023123;28;20475;-59
2022/11/17 01:41:44;;;;;;;15.87;2.77;;;;;;;11.15;100.00;98124.53;5024690;28;20508;-60
2022/11/17 01:44:43;;;;;;;11.53;0.60;;;;;;;11.08;100.00;98117.91;5023843;28;20571;-59
2022/11/17 01:47:32;;;;;;;4.83;1.60;;;;;;;10.93;100.00;98101.16;5021288;28;20463;-60
2022/11/17 01:50:08;;;;;;;0.90;0.77;;;;;;;10.76;100.00;98081.00;5010527;28;20543;-59
2022/11/17 01:52:37;;;;;;;0.80;0.60;;;;;;;10.64;100.00;98060.53;5026244;28;20459;-59
2022/11/17 01:55:07;;;;;;;0.67;0.40;;;;;;;10.59;100.00;98050.22;5020640;28;20452;-58
2022/11/17 01:57:40;;;;;;;0.60;0.57;;;;;;;10.53;100.00;98057.72;5013594;28;20447;-59
2022/11/17 02:00:08;;;;;;;0.50;0.40;;;;;;;10.68;100.00;98054.06;5019179;28;20468;-59
2022/11/17 02:02:37;;;;;;;0.70;0.60;;;;;;;10.73;100.00;98044.00;5014740;28;20456;-59
2022/11/17 02:05:12;;;;;;;0.63;0.63;;;;;;;10.77;100.00;98045.50;5018907;28;20506;-59
2022/11/17 02:07:41;;;;;;;1.53;0.60;;;;;;;10.63;100.00;98032.25;5016159;28;20503;-59
2022/11/17 02:10:07;;;;;;;0.87;0.63;;;;;;;10.62;100.00;98033.22;5017509;28;20832;-59
2022/11/17 02:12:35;;;;;;;2.90;1.33;;;;;;;10.83;100.00;98036.28;5016673;28;20458;-59
2022/11/17 02:15:03;;;;;;;3.30;1.30;;;;;;;10.62;100.00;98023.44;5016854;28;20461;-59
2022/11/17 02:17:57;;;;;;;2.23;1.10;;;;;;;10.63;100.00;98016.31;5016827;28;20847;-59
2022/11/17 02:20:38;;;;;;;9.43;1.17;;;;;;;10.61;100.00;98008.47;5010551;28;20518;-59
2022/11/17 02:23:35;;;;;;;0.60;0.60;;;;;;;10.53;100.00;97996.63;5021732;28;20491;-59
2022/11/17 02:26:12;;;;;;;6.00;1.73;;;;;;;10.64;100.00;97986.16;5020003;28;20868;-59
2022/11/17 02:29:16;;;;;;;3.13;0.70;;;;;;;10.65;100.00;97999.31;5011594;28;20919;-59
2022/11/17 02:32:10;;;;;;;0.60;0.50;;;;;;;10.83;100.00;97993.78;5023615;28;20483;-60
2022/11/17 02:34:56;;;;;;;0.80;0.80;;;;;;;11.03;100.00;97995.09;5010643;28;20449;-60
2022/11/17 02:37:32;;;;;;;1.97;1.23;;;;;;;10.64;100.00;97986.16;5019796;28;20456;-59
2022/11/17 02:40:09;;;;;;;1.23;1.13;;;;;;;10.60;100.00;97988.16;5013838;28;20471;-59
2022/11/17 02:45:58;;;;;;;1.23;1.13;;;;;;;10.63;100.00;97977.31;5019770;28;20559;-60
2022/11/17 02:48:30;;;;;;;4.03;0.87;;;;;;;11.00;100.00;97982.84;5016151;28;20566;-60
2022/11/17 02:50:58;;;;;;;0.93;0.93;;;;;;;10.77;100.00;97975.56;5023204;28;20525;-60
2022/11/17 02:53:27;;;;;;;3.10;1.17;;;;;;;10.86;100.00;97974.94;5013658;28;20499;-60
2022/11/17 02:55:54;;;;;;;0.97;0.87;;;;;;;10.94;100.00;97984.09;5011771;28;20480;-60
2022/11/17 02:58:20;;;;;;;0.90;0.90;;;;;;;11.15;100.00;97983.63;5020109;28;20534;-60
2022/11/17 03:01:28;;;;;;;1.77;1.07;;;;;;;11.18;100.00;97994.88;5011587;28;21158;-60
2022/11/17 03:04:16;;;;;;;0.93;0.90;;;;;;;11.13;100.00;97985.53;4997115;28;20502;-60
2022/11/17 03:07:01;;;;;;;0.80;0.80;;;;;;;10.98;100.00;97977.66;5011223;28;20444;-60
2022/11/17 03:09:41;;;;;;;1.00;0.93;;;;;;;11.07;100.00;97973.50;5021881;28;20476;-60
2022/11/17 03:12:18;;;;;;;2.13;1.27;;;;;;;10.84;100.00;97975.06;5011915;28;20460;-59
2022/11/17 03:14:57;;;;;;;0.80;0.40;;;;;;;10.85;100.00;97970.59;5018144;28;20471;-60
2022/11/17 03:17:41;;;;;;;1.50;0.70;;;;;;;10.81;100.00;97969.06;5015006;28;20451;-60
2022/11/17 03:20:15;;;;;;;1.37;0.83;;;;;;;10.70;100.00;97968.97;5013813;28;20495;-60
2022/11/17 03:22:50;;;;;;;0.80;0.80;;;;;;;10.69;100.00;97954.84;5019025;28;20502;-60
2022/11/17 03:25:19;;;;;;;3.67;1.17;;;;;;;10.57;100.00;97937.91;5011288;28;20456;-60
2022/11/17 03:27:50;;;;;;;0.50;0.50;;;;;;;10.71;100.00;97936.13;5020506;28;20452;-60
2022/11/17 03:30:18;;;;;;;1.43;1.10;;;;;;;10.64;100.00;97940.97;5009764;28;20491;-59
2022/11/17 03:32:51;;;;;;;0.50;0.50;;;;;;;10.63;100.00;97940.13;5021588;28;20815;-60
2022/11/17 03:35:22;;;;;;;0.73;0.73;;;;;;;10.64;100.00;97938.31;5015963;28;20458;-59
2022/11/17 03:37:54;;;;;;;0.70;0.70;;;;;;;10.66;100.00;97928.44;5014909;28;20452;-60
2022/11/17 03:40:24;;;;;;;1.10;1.00;;;;;;;10.71;100.00;97936.97;5016886;28;20451;-60
2022/11/17 03:42:55;;;;;;;0.70;0.47;;;;;;;10.77;100.00;97938.34;5039943;28;20447;-60
2022/11/17 03:45:28;;;;;;;2.93;1.13;;;;;;;10.79;100.00;97939.94;5018364;28;20933;-59
2022/11/17 03:48:06;;;;;;;0.80;0.80;;;;;;;10.73;100.00;97929.75;5001236;28;20475;-59
2022/11/17 03:50:36;;;;;;;15.73;1.63;;;;;;;10.72;100.00;97928.06;5021175;28;20466;-60
2022/11/17 03:53:03;;;;;;;0.70;0.50;;;;;;;10.89;100.00;97946.34;5012720;28;20606;-59
2022/11/17 03:55:59;;;;;;;0.53;0.53;;;;;;;10.87;100.00;97937.63;5008862;28;20966;-59
2022/11/17 03:58:31;;;;;;;2.10;1.57;;;;;;;10.95;100.00;97940.63;4967782;28;20507;-60
2022/11/17 04:01:00;;;;;;;1.80;1.70;;;;;;;10.90;100.00;97941.88;4996047;28;21022;-59
2022/11/17 04:03:32;;;;;;;0.50;0.40;;;;;;;10.93;100.00;97926.56;5016452;28;21400;-59
2022/11/17 04:06:00;;;;;;;0.50;0.50;;;;;;;10.99;100.00;97922.66;5028611;28;20470;-59
2022/11/17 04:08:29;;;;;;;4.53;1.03;;;;;;;10.92;100.00;97919.56;5029116;28;20476;-60
2022/11/17 04:16:27;;;;;;;0.60;0.60;;;;;;;11.38;100.00;97920.88;5019688;28;20452;-60
2022/11/17 04:18:53;;;;;;;0.90;0.63;;;;;;;11.54;100.00;97921.50;5018500;28;20909;-61
2022/11/17 04:21:24;;;;;;;0.43;0.40;;;;;;;11.51;100.00;97927.91;5019601;28;20455;-60
2022/11/17 04:23:51;;;;;;;0.50;0.40;;;;;;;11.66;100.00;97925.09;5022181;28;20495;-60
2022/11/17 04:29:02;;;;;;;0.47;0.30;;;;;;;11.76;100.00;97934.97;5021473;28;20483;-60
2022/11/17 04:31:30;;;;;;;0.40;0.30;;;;;;;11.81;100.00;97946.19;5016260;28;20499;-60
2022/11/17 04:34:02;;;;;;;0.70;0.70;;;;;;;11.89;100.00;97934.13;5021700;28;20460;-60
2022/11/17 04:36:31;;;;;;;0.70;0.57;;;;;;;11.71;100.00;97936.25;5014971;28;20479;-60
2022/11/17 04:38:58;;;;;;;0.80;0.70;;;;;;;11.54;100.00;97935.66;5022729;28;21073;-60
2022/11/17 04:44:14;;;;;;;0.60;0.50;;;;;;;11.75;100.00;97935.94;5025065;28;20495;-60
2022/11/17 04:46:43;;;;;;;0.60;0.40;;;;;;;11.97;100.00;97927.28;5026027;28;20457;-60
2022/11/17 04:49:09;;;;;;;1.17;0.80;;;;;;;11.81;100.00;97945.34;5018351;28;20473;-60
2022/11/17 04:51:37;;;;;;;0.50;0.30;;;;;;;11.90;100.00;97935.81;5024618;28;20503;-60
2022/11/17 04:54:06;;;;;;;2.10;0.90;;;;;;;12.21;100.00;97931.81;5015869;28;20924;-59
2022/11/17 04:56:32;;;;;;;0.70;0.70;;;;;;;11.85;100.00;97930.84;5019885;28;20426;-60
2022/11/17 04:58:59;;;;;;;0.40;0.30;;;;;;;11.31;100.00;97914.28;5016932;28;20438;-60
2022/11/17 05:01:26;;;;;;;4.53;0.70;;;;;;;10.92;100.00;97908.94;5019848;28;21155;-59
2022/11/17 05:03:56;;;;;;;9.70;0.57;;;;;;;10.98;100.00;97905.03;5016333;28;20496;-60
2022/11/17 05:06:25;;;;;;;2.00;0.60;;;;;;;11.06;100.00;97912.44;5020917;28;20452;-60
2022/11/17 05:08:54;;;;;;;4.00;0.60;;;;;;;11.15;100.00;97914.50;5015192;28;20885;-60
2022/11/17 05:14:11;;;;;;;0.40;0.30;;;;;;;10.80;100.00;97901.78;4994049;28;20419;-59
2022/11/17 05:19:24;;;;;;;2.00;0.40;;;;;;;10.85;100.00;97899.69;5021443;28;20468;-59
2022/11/17 05:21:51;;;;;;;0.50;0.30;;;;;;;11.01;100.00;97902.16;5013979;28;20513;-59
2022/11/17 05:24:18;;;;;;;4.00;0.40;;;;;;;11.03;100.00;97899.38;5020936;28;20492;-60
2022/11/17 05:26:46;;;;;;;0.63;0.30;;;;;;;10.88;100.00;97880.03;5014548;28;20465;-59
2022/11/17 05:29:14;;;;;;;2.43;0.30;;;;;;;10.78;100.00;97857.69;5020993;28;20492;-60
2022/11/17 05:31:42;;;;;;;0.40;0.30;;;;;;;10.78;100.00;97873.63;5014693;28;21037;-60
2022/11/17 05:34:11;;;;;;;3.40;0.53;;;;;;;10.78;100.00;97866.50;5020158;28;20456;-60
2022/11/17 05:36:39;;;;;;;0.73;0.73;;;;;;;10.67;100.00;97867.22;5015285;28;20456;-60
2022/11/17 05:39:06;;;;;;;0.30;0.30;;;;;;;10.60;100.00;97865.97;5019500;28;20476;-60
2022/11/17 05:41:33;;;;;;;0.40;0.30;;;;;;;10.65;100.00;97870.94;5021412;28;20858;-60
2022/11/17 05:44:00;;;;;;;0.40;0.30;;;;;;;10.91;100.00;97866.50;5027177;28;20511;-60
2022/11/17 05:46:26;;;;;;;0.83;0.57;;;;;;;10.82;100.00;97859.16;5024106;28;20452;-60
2022/11/17 05:48:53;;;;;;;1.60;0.73;;;;;;;10.70;100.00;97860.88;5018240;28;20500;-60
2022/11/17 05:51:21;;;;;;;0.80;0.60;;;;;;;10.59;100.00;97850.13;5023943;28;20461;-60
2022/11/17 05:53:49;;;;;;;2.20;0.73;;;;;;;10.59;100.00;97848.31;5015174;28;20515;-60
2022/11/17 05:56:37;;;;;;;0.40;0.30;;;;;;;10.63;100.00;97851.63;5016460;28;20458;-60
2022/11/17 05:59:28;;;;;;;0.40;0.30;;;;;;;10.58;100.00;97836.00;5015614;28;20473;-60
2022/11/17 06:02:03;;;;;;;1.70;0.60;;;;;;;10.64;100.00;97840.88;5022564;28;20447;-60
2022/11/17 06:04:30;;;;;;;2.50;0.87;;;;;;;10.77;100.00;97848.88;5012970;28;20915;-60
2022/11/17 06:06:59;;;;;;;0.40;0.30;;;;;;;10.91;100.00;97850.56;5023747;28;21054;-60
2022/11/17 06:09:35;;;;;;;2.30;1.80;;;;;;;11.08;100.00;97857.38;5010264;28;21068;-60
2022/11/17 06:12:02;;;;;;;2.87;0.80;;;;;;;11.20;100.00;97856.50;5023539;28;20478;-60
2022/11/17 06:14:33;;;;;;;0.70;0.53;;;;;;;11.36;100.00;97853.63;5010192;28;20445;-60
2022/11/17 06:17:05;;;;;;;8.43;1.57;;;;;;;11.60;100.00;97861.66;5023642;28;20452;-60
2022/11/17 06:19:39;;;;;;;0.40;0.30;;;;;;;11.72;100.00;97863.44;5010645;28;20834;-60
2022/11/17 06:22:06;;;;;;;0.60;0.53;;;;;;;11.77;100.00;97867.47;5025499;28;20517;-60
2022/11/17 06:24:43;;;;;;;0.60;0.60;;;;;;;11.88;100.00;97876.53;5017060;28;20524;-60
2022/11/17 06:27:15;;;;;;;0.40;0.30;;;;;;;11.96;100.00;97874.16;5010554;28;20837;-60
2022/11/17 06:29:43;;;;;;;0.50;0.40;;;;;;;11.88;100.00;97866.72;5023672;28;20479;-60
2022/11/17 06:32:13;;;;;;;0.53;0.30;;;;;;;11.72;100.00;97872.28;5009868;28;20463;-60
2022/11/17 06:34:41;;;;;;;0.50;0.30;;;;;;;11.97;100.00;97873.19;5023318;28;20451;-60
2022/11/17 06:37:08;;;;;;;0.40;0.30;;;;;;;11.78;100.00;97878.97;5010027;28;20956;-60
2022/11/17 06:39:34;;;;;;;0.40;0.30;;;;;;;11.76;100.00;97879.06;5023054;28;20479;-60
2022/11/17 06:42:00;;;;;;;0.40;0.30;;;;;;;11.79;100.00;97876.25;5027474;28;20857;-61
2022/11/17 06:44:27;;;;;;;0.73;0.70;;;;;;;11.77;100.00;97878.09;5020873;28;20488;-60
2022/11/17 06:46:53;;;;;;;3.40;0.50;;;;;;;11.90;100.00;97878.09;5023440;28;20517;-60
2022/11/17 06:49:19;;;;;;;7.73;1.47;;;;;;;11.88;100.00;97874.72;5016131;28;20543;-60
2022/11/17 06:51:46;;;;;;;0.70;0.70;;;;;;;11.94;100.00;97876.94;5020244;28;20462;-60
2022/11/17 06:54:13;;;;;;;0.50;0.40;;;;;;;12.14;100.00;97878.97;5013365;28;20453;-60
2022/11/17 06:56:41;;;;;;;0.80;0.30;;;;;;;12.02;100.00;97884.34;5001902;28;20538;-60
2022/11/17 06:59:07;;;;;;;0.30;0.30;;;;;;;12.21;100.00;97892.72;5012860;28;20479;-60
2022/11/17 07:01:34;;;;;;;0.90;0.80;;;;;;;12.01;100.00;97887.97;5019361;28;20458;-60
2022/11/17 07:04:00;;;;;;;0.77;0.47;;;;;;;12.13;100.00;97890.59;5012639;28;20496;-60
2022/11/17 07:06:31;;;;;;;4.23;0.50;;;;;;;12.20;100.00;97900.78;5019857;28;20451;-60
2022/11/17 07:08:57;;;;;;;0.50;0.50;;;;;;;12.33;100.00;97902.44;5012209;28;20556;-60
2022/11/17 07:11:23;;;;;;;0.40;0.30;;;;;;;12.22;100.00;97896.22;5020038;28;20459;-60
2022/11/17 07:13:50;;;;;;;7.17;0.63;;;;;;;12.25;100.00;97888.84;5012162;28;20504;-60
2022/11/17 07:16:18;;;;;;;0.57;0.57;;;;;;;12.23;100.00;97890.78;5019618;28;20456;-60
2022/11/17 07:18:50;;;;;;;5.00;0.73;;;;;;;12.20;100.00;97892.78;5011003;28;20556;-60
2022/11/17 07:21:17;;;;;;;2.60;0.63;;;;;;;12.15;100.00;97896.66;5021188;28;20451;-60
2022/11/17 07:23:44;;;;;;;0.70;0.50;;;;;;;12.30;100.00;97900.00;5021265;28;20453;-60
2022/11/17 07:26:11;;;;;;;1.80;0.40;;;;;;;12.32;100.00;97898.06;5009297;28;20973;-60
2022/11/17 07:28:37;;;;;;;5.80;0.60;;;;;;;12.41;100.00;97901.88;5022371;28;20458;-60
2022/11/17 07:31:06;;;;;;;0.40;0.30;;;;;;;12.44;100.00;97897.16;5009051;28;20535;-60
2022/11/17 07:33:33;;;;;;;0.60;0.60;;;;;;;12.51;100.00;97896.72;5022111;28;20476;-60
2022/11/17 07:36:08;;;;;;;5.47;2.63;;;;;;;12.49;100.00;97888.84;5009367;28;20455;-60
2022/11/17 07:38:38;;;;;;;2.70;1.40;;;;;;;12.40;100.00;97886.84;5016392;28;20935;-60
2022/11/17 07:41:06;;;;;;;1.13;0.77;;;;;;;12.38;100.00;97883.47;5030098;28;20451;-60
2022/11/17 07:43:33;;;;;;;2.53;1.03;;;;;;;12.44;100.00;97886.50;5015744;28;20459;-59
2022/11/17 07:46:05;;;;;;;7.93;1.43;;;;;;;12.54;100.00;97889.34;5026324;28;20494;-60
2022/11/17 07:48:32;;;;;;;0.93;0.77;;;;;;;12.74;100.00;97888.66;5020038;28;20484;-60
2022/11/17 07:50:59;;;;;;;9.73;1.13;;;;;;;12.68;100.00;97888.28;5026430;28;20432;-60
2022/11/17 07:53:26;;;;;;;31.40;1.80;;;;;;;12.77;100.00;97892.09;5016923;28;20851;-60
2022/11/17 07:55:53;;;;;;;4.93;0.60;;;;;;;12.71;100.00;97886.22;5015973;28;20535;-60
2022/11/17 07:58:19;;;;;;;0.77;0.50;;;;;;;12.79;100.00;97884.81;5023136;28;20473;-60
2022/11/17 08:00:46;;;;;;;2.27;0.60;;;;;;;12.78;100.00;97869.78;5015829;28;20451;-60
2022/11/17 08:03:12;;;;;;;0.40;0.40;;;;;;;12.81;100.00;97889.06;5022969;28;20452;-60
2022/11/17 08:05:39;;;;;;;0.67;0.37;;;;;;;12.99;100.00;97886.78;5015855;28;20499;-60
2022/11/17 08:08:09;;;;;;;0.40;0.30;;;;;;;12.89;100.00;97891.16;5022638;28;20551;-60
2022/11/17 08:10:35;;;;;;;0.97;0.87;;;;;;;13.01;100.00;97896.38;5016843;28;20463;-60
2022/11/17 08:13:02;;;;;;;24.17;1.17;;;;;;;12.86;100.00;97896.69;5021825;28;20448;-60
2022/11/17 08:15:29;;;;;;;1.53;0.40;;;;;;;13.12;100.00;97894.69;5016544;28;20447;-60
2022/11/17 08:17:58;;;;;;;1.23;0.83;;;;;;;13.13;100.00;97899.91;5003904;28;20580;-61
2022/11/17 08:20:26;;;;;;;5.23;1.80;;;;;;;13.05;100.00;97900.53;5017110;28;20451;-60
2022/11/17 08:22:53;;;;;;;0.93;0.93;;;;;;;13.33;100.00;97903.75;5029253;28;20989;-61
2022/11/17 08:25:21;;;;;;;1.93;1.33;;;;;;;13.28;100.00;97901.41;5014347;28;20500;-60
2022/11/17 08:27:50;;;;;;;0.87;0.50;;;;;;;13.32;100.00;97900.22;5023988;28;20882;-60
2022/11/17 08:30:19;;;;;;;1.13;0.53;;;;;;;13.24;100.00;97899.13;5032406;23;20569;-51
2022/11/17 08:32:50;;;;;;;1.70;1.07;;;;;;;13.24;100.00;97889.28;5020514;28;20545;-52
2022/11/17 08:35:19;;;;;;;8.90;0.50;;;;;;;13.45;100.00;97902.78;5019597;28;20506;-51
2022/11/17 08:37:46;;;;;;;3.20;0.90;;;;;;;13.57;100.00;97909.84;5032175;28;20478;-53
2022/11/17 08:40:13;;;;;;;3.67;0.93;;;;;;;13.67;100.00;97912.59;5020281;28;20477;-51
2022/11/17 08:42:39;;;;;;;2.30;0.73;;;;;;;13.96;100.00;97909.41;5032653;28;20455;-52
2022/11/17 08:45:06;;;;;;;1.03;0.70;;;;;;;14.09;100.00;97919.00;5032623;28;20465;-51
2022/11/17 08:47:33;;;;;;;0.60;0.60;;;;;;;14.16;100.00;97919.34;5032249;28;20434;-51
2022/11/17 08:49:59;;;;;;;5.53;1.60;;;;;;;13.97;99.13;97921.78;5032477;28;20471;-51
2022/11/17 08:52:26;;;;;;;0.83;0.60;;;;;;;14.18;99.62;97930.75;5032382;28;20438;-51
2022/11/17 08:54:53;;;;;;;0.47;0.43;;;;;;;14.11;98.92;97927.72;5031986;28;20923;-51
2022/11/17 08:57:22;;;;;;;3.60;0.67;;;;;;;14.00;98.72;97929.59;5032016;28;21043;-51
2022/11/17 08:59:49;;;;;;;4.00;1.53;;;;;;;13.88;100.00;97937.59;5031952;28;21330;-51
2022/11/17 09:02:16;;;;;;;0.40;0.30;;;;;;;13.94;99.57;97942.44;5032026;28;20475;-51
2022/11/17 09:04:44;;;;;;;6.90;1.10;;;;;;;14.06;99.21;97945.09;5032261;28;20491;-51
2022/11/17 09:07:11;;;;;;;0.90;0.37;;;;;;;14.02;98.77;97947.19;5031750;28;20847;-51
2022/11/17 09:09:37;;;;;;;6.83;1.70;;;;;;;14.11;99.20;97943.75;5032354;28;20496;-51
2022/11/17 09:12:04;;;;;;;18.73;1.73;;;;;;;14.07;98.14;97954.81;5031946;28;20460;-51
2022/11/17 09:14:31;;;;;;;31.13;1.70;;;;;;;14.10;98.79;97955.41;5031967;28;20451;-51
2022/11/17 09:16:57;;;;;;;7.73;1.60;;;;;;;13.99;99.57;97955.44;5031830;28;20464;-51
2022/11/17 09:19:23;;;;;;;0.57;0.50;;;;;;;14.14;98.62;97962.22;5031697;28;21165;-52
2022/11/17 09:21:50;;;;;;;0.57;0.50;;;;;;;14.28;98.43;97971.81;5031759;28;20954;-51
2022/11/17 09:24:16;;;;;;;2.97;1.37;;;;;;;13.96;99.56;97977.03;5031576;28;20811;-51
2022/11/17 09:26:43;;;;;;;7.90;0.97;;;;;;;13.89;99.66;97989.19;5032084;28;20458;-51
2022/11/17 09:29:09;;;;;;;0.97;0.87;;;;;;;13.96;100.00;97986.88;5031857;28;20512;-52
2022/11/17 09:31:36;;;;;;;1.33;1.27;;;;;;;14.05;100.00;97989.66;5031404;28;20487;-51
2022/11/17 09:34:03;;;;;;;0.97;0.57;;;;;;;13.70;100.00;97991.59;5031948;28;20494;-51
2022/11/17 09:36:32;;;;;;;1.40;0.80;;;;;;;13.75;100.00;97997.44;5031310;28;20423;-51
2022/11/17 09:38:58;;;;;;;6.27;1.10;;;;;;;13.81;100.00;97996.94;5031676;28;20460;-51
2022/11/17 09:41:31;;;;;;;1.23;0.40;;;;;;;13.76;100.00;97996.47;5031632;28;20464;-51
2022/11/17 09:44:12;;;;;;;1.17;0.80;;;;;;;13.77;100.00;98001.69;5031474;28;20422;-51
2022/11/17 09:47:06;;;;;;;0.70;0.53;;;;;;;13.94;100.00;98006.53;5018777;28;20454;-52
2022/11/17 09:49:56;;;;;;;1.90;0.93;;;;;;;13.94;100.00;98011.88;5031420;28;20423;-52
2022/11/17 09:52:46;;;;;;;34.27;1.90;;;;;;;13.77;100.00;98014.19;5031006;28;20510;-51
2022/11/17 09:55:13;;;;;;;2.20;1.33;;;;;;;14.01;100.00;98008.75;5030977;28;20418;-52
2022/11/17 09:57:42;;;;;;;0.60;0.60;;;;;;;14.07;100.00;98008.25;5031090;28;20496;-51
2022/11/17 10:00:15;;;;;;;1.43;0.50;;;;;;;14.17;100.00;98010.06;5031079;28;20480;-51
2022/11/17 10:02:42;;;;;;;0.40;0.40;;;;;;;14.34;100.00;98011.38;5031262;28;20935;-51
2022/11/17 10:05:23;;;;;;;4.43;0.40;;;;;;;14.19;100.00;98016.13;5030866;28;20519;-51
2022/11/17 10:07:52;;;;;;;9.50;0.83;;;;;;;14.39;100.00;98017.22;5030090;28;20423;-51
2022/11/17 10:10:28;;;;;;;8.47;0.50;;;;;;;14.72;98.92;98021.69;5031029;28;20476;-51
2022/11/17 10:12:56;;;;;;;2.83;1.33;;;;;;;14.84;98.52;98016.31;5031527;28;20512;-51
2022/11/17 10:15:28;;;;;;;0.73;0.57;;;;;;;14.83;98.30;98012.78;5030874;28;20881;-51
2022/11/17 10:17:55;;;;;;;2.97;1.40;;;;;;;14.90;98.14;98016.63;5030724;28;20803;-51
2022/11/17 10:20:21;;;;;;;2.73;1.07;;;;;;;14.86;97.60;98015.19;5030338;28;20446;-52
2022/11/17 10:22:50;;;;;;;13.27;1.13;;;;;;;14.95;97.71;98010.91;5030462;28;20448;-51
2022/11/17 10:25:33;;;;;;;18.03;1.37;;;;;;;15.12;96.57;98013.03;5030505;28;20528;-52
2022/11/17 10:27:59;;;;;;;0.40;0.27;;;;;;;15.05;95.17;98012.69;5030956;28;20497;-52
2022/11/17 10:30:26;;;;;;;8.10;0.60;;;;;;;15.21;95.47;98020.25;5030300;28;20476;-52
2022/11/17 10:32:55;;;;;;;3.43;1.00;;;;;;;15.08;96.22;98017.78;5030418;28;20426;-52
2022/11/17 10:35:34;;;;;;;6.90;0.97;;;;;;;15.00;95.03;98019.41;5030475;28;20468;-52
2022/11/17 10:38:02;;;;;;;0.57;0.50;;;;;;;14.85;95.75;98023.34;5030390;28;20463;-52
2022/11/17 10:40:31;;;;;;;1.43;1.40;;;;;;;14.81;95.09;98033.47;5030266;28;20446;-51
2022/11/17 10:43:10;;;;;;;0.50;0.50;;;;;;;14.65;96.48;98031.16;5030002;28;20461;-52
2022/11/17 10:46:02;;;;;;;1.63;0.50;;;;;;;14.44;97.54;98030.25;5030379;28;21230;-52
2022/11/17 10:48:31;;;;;;;0.80;0.50;;;;;;;14.62;96.80;98020.72;5029855;28;20522;-51
2022/11/17 10:51:08;;;;;;;2.73;0.57;;;;;;;14.07;98.33;98021.59;5030155;28;20499;-52
2022/11/17 10:53:37;;;;;;;1.07;0.80;;;;;;;14.25;97.94;98017.47;5030206;28;20795;-52
2022/11/17 10:56:20;;;;;;;1.90;0.93;;;;;;;14.45;98.68;98011.41;5029989;28;20447;-51
2022/11/17 10:59:09;;;;;;;4.70;1.03;;;;;;;14.76;97.71;98015.09;5029872;28;20834;-52
2022/11/17 11:01:38;;;;;;;2.93;0.40;;;;;;;14.46;96.18;98010.44;5029788;28;20453;-52
2022/11/17 11:04:24;;;;;;;3.83;0.97;;;;;;;14.34;96.92;98008.72;5030088;28;20444;-51
2022/11/17 11:07:10;;;;;;;2.17;0.70;;;;;;;14.24;98.47;98015.75;5029885;28;20470;-51
2022/11/17 11:09:43;;;;;;;0.73;0.53;;;;;;;14.25;97.75;98017.47;5029854;28;20545;-51
2022/11/17 11:12:15;;;;;;;0.50;0.50;;;;;;;14.09;97.34;98025.00;5029458;28;20447;-51
2022/11/17 11:14:49;;;;;;;5.80;0.50;;;;;;;14.08;98.32;98024.16;5029739;28;20452;-50
2022/11/17 11:17:17;;;;;;;4.50;1.30;;;;;;;13.91;98.53;98038.00;5029479;28;20448;-51
2022/11/17 11:19:51;;;;;;;3.80;0.73;;;;;;;13.94;99.45;98040.41;5029571;28;20447;-51
2022/11/17 11:22:44;;;;;;;0.63;0.60;;;;;;;14.08;99.07;98034.00;5016189;28;20463;-51
2022/11/17 11:25:36;;;;;;;3.53;0.50;;;;;;;14.13;99.13;98045.19;5029570;28;20537;-51
2022/11/17 11:28:09;;;;;;;0.60;0.50;;;;;;;14.08;98.69;98042.00;5029628;28;20422;-51
2022/11/17 11:30:45;;;;;;;5.13;0.90;;;;;;;14.22;98.49;98036.41;5029164;28;20491;-51
2022/11/17 11:33:37;;;;;;;0.87;0.87;;;;;;;14.50;97.16;98037.75;5029213;28;20418;-51
2022/11/17 11:36:25;;;;;;;12.13;0.60;;;;;;;14.78;96.34;98028.34;5029850;28;20422;-51
2022/11/17 11:39:02;;;;;;;3.97;1.07;;;;;;;14.87;96.70;98030.25;5029561;28;20454;-51
2022/11/17 11:41:42;;;;;;;1.43;0.40;;;;;;;14.79;95.31;98038.91;5029201;28;20545;-51
2022/11/17 11:44:15;;;;;;;2.63;0.53;;;;;;;14.87;96.26;98040.97;5029584;28;20448;-50
2022/11/17 11:47:14;;;;;;;0.87;0.50;;;;;;;15.01;95.07;98037.16;5015036;28;20552;-51
2022/11/17 11:50:01;;;;;;;0.53;0.53;;;;;;;15.01;96.57;98037.16;5027255;28;20482;-51
2022/11/17 11:52:33;;;;;;;2.53;0.30;;;;;;;14.61;95.85;98047.59;5029330;28;20422;-51
2022/11/17 11:55:04;;;;;;;0.60;0.60;;;;;;;14.52;97.10;98043.81;5029360;28;20479;-51
2022/11/17 11:58:03;;;;;;;3.23;0.40;;;;;;;14.63;97.25;98043.81;5028940;28;20454;-51
2022/11/17 12:00:30;;;;;;;4.40;0.87;;;;;;;14.65;97.12;98039.19;5029020;28;20530;-52
2022/11/17 12:03:21;;;;;;;0.47;0.30;;;;;;;14.73;96.75;98044.75;5029272;28;20507;-51
2022/11/17 12:09:05;;;;;;;0.40;0.40;;;;;;;14.50;96.32;98051.97;5029409;28;20425;-51
2022/11/17 12:14:18;;;;;;;0.40;0.30;;;;;;;14.50;97.37;98054.66;5016246;28;20986;-51
2022/11/17 12:16:46;;;;;;;1.27;0.40;;;;;;;14.49;97.15;98062.78;5028877;28;20418;-51
2022/11/17 12:19:41;;;;;;;0.30;0.20;;;;;;;14.54;96.10;98055.28;5029424;28;20458;-51
2022/11/17 12:22:08;;;;;;;0.43;0.30;;;;;;;14.43;96.47;98058.75;5028902;28;20447;-51
2022/11/17 12:24:39;;;;;;;2.57;1.07;;;;;;;14.39;96.97;98059.13;5028650;28;20956;-51